sensor_id;sensor_type;location;lat;lon;timestamp;pressure;altitude;pressure_sealevel;temperature;humidity
36254;BME280;22291;52.250;21.228;2023-05-24T07:06:08;100074.20;;;22.72;39.39
36254;BME280;22291;52.250;21.228;2023-05-24T07:08:36;100075.02;;;22.44;39.54
36254;BME280;22291;52.250;21.228;2023-05-24T07:11:02;100071.11;;;22.37;39.53
36254;BME280;22291;52.250;21.228;2023-05-24T07:13:29;100075.42;;;22.38;40.15
36254;BME280;22291;52.250;21.228;2023-05-24T07:15:57;100078.14;;;22.67;40.86
36254;BME280;22291;52.250;21.228;2023-05-24T07:18:23;100087.30;;;23.12;40.65
36254;BME280;22291;52.250;21.228;2023-05-24T07:20:49;100081.85;;;23.45;39.74
36254;BME280;22291;52.250;21.228;2023-05-24T07:23:15;100093.91;;;23.73;39.57
36254;BME280;22291;52.250;21.228;2023-05-24T07:25:42;100087.55;;;23.87;39.60
36254;BME280;22291;52.250;21.228;2023-05-24T07:28:09;100096.30;;;24.08;39.17
36254;BME280;22291;52.250;21.228;2023-05-24T07:30:36;100089.49;;;24.20;38.25
36254;BME280;22291;52.250;21.228;2023-05-24T07:33:04;100093.80;;;24.47;38.11
36254;BME280;22291;52.250;21.228;2023-05-24T07:35:30;100100.27;;;24.75;37.81
36254;BME280;22291;52.250;21.228;2023-05-24T07:37:58;100102.83;;;24.77;37.51
36254;BME280;22291;52.250;21.228;2023-05-24T07:40:24;100106.17;;;24.77;37.36
36254;BME280;22291;52.250;21.228;2023-05-24T07:42:52;100113.50;;;24.75;37.20
36254;BME280;22291;52.250;21.228;2023-05-24T07:45:19;100113.73;;;24.73;37.42
36254;BME280;22291;52.250;21.228;2023-05-24T07:47:45;100112.02;;;24.86;37.69
36254;BME280;22291;52.250;21.228;2023-05-24T07:50:11;100119.86;;;25.29;37.35
36254;BME280;22291;52.250;21.228;2023-05-24T07:52:37;100116.83;;;25.51;37.17
36254;BME280;22291;52.250;21.228;2023-05-24T07:55:06;100119.54;;;25.70;36.31
36254;BME280;22291;52.250;21.228;2023-05-24T07:57:32;100117.63;;;25.79;36.39
36254;BME280;22291;52.250;21.228;2023-05-24T07:59:58;100116.14;;;25.86;34.38
36254;BME280;22291;52.250;21.228;2023-05-24T08:02:27;100123.14;;;25.67;35.33
36254;BME280;22291;52.250;21.228;2023-05-24T08:04:54;100128.87;;;25.52;35.76
36254;BME280;22291;52.250;21.228;2023-05-24T08:07:22;100129.14;;;25.46;36.00
36254;BME280;22291;52.250;21.228;2023-05-24T08:09:48;100130.27;;;25.33;35.57
36254;BME280;22291;52.250;21.228;2023-05-24T08:12:14;100129.05;;;25.19;35.62
36254;BME280;22291;52.250;21.228;2023-05-24T08:14:40;100122.69;;;25.22;35.02
36254;BME280;22291;52.250;21.228;2023-05-24T08:17:06;100123.30;;;25.22;35.50
36254;BME280;22291;52.250;21.228;2023-05-24T08:19:34;100123.97;;;25.33;35.98
36254;BME280;22291;52.250;21.228;2023-05-24T08:22:04;100120.09;;;25.73;36.08
36254;BME280;22291;52.250;21.228;2023-05-24T08:24:30;100127.73;;;26.20;34.72
36254;BME280;22291;52.250;21.228;2023-05-24T08:26:58;100128.43;;;26.51;33.58
36254;BME280;22291;52.250;21.228;2023-05-24T08:29:25;100129.13;;;26.91;34.68
36254;BME280;22291;52.250;21.228;2023-05-24T08:31:51;100134.33;;;27.41;33.72
36254;BME280;22291;52.250;21.228;2023-05-24T08:34:17;100128.95;;;27.78;34.33
36254;BME280;22291;52.250;21.228;2023-05-24T08:36:43;100131.97;;;28.45;33.73
36254;BME280;22291;52.250;21.228;2023-05-24T08:39:11;100131.75;;;28.93;32.73
36254;BME280;22291;52.250;21.228;2023-05-24T08:41:38;100131.52;;;29.38;32.25
36254;BME280;22291;52.250;21.228;2023-05-24T08:44:08;100129.78;;;29.70;31.95
36254;BME280;22291;52.250;21.228;2023-05-24T08:46:36;100127.30;;;30.06;31.39
36254;BME280;22291;52.250;21.228;2023-05-24T08:49:03;100135.39;;;30.51;30.64
36254;BME280;22291;52.250;21.228;2023-05-24T08:51:35;100138.05;;;30.72;29.85
36254;BME280;22291;52.250;21.228;2023-05-24T08:54:08;100139.06;;;30.83;28.85
36254;BME280;22291;52.250;21.228;2023-05-24T08:56:39;100137.03;;;30.79;28.78
36254;BME280;22291;52.250;21.228;2023-05-24T08:59:08;100134.73;;;30.82;28.46
36254;BME280;22291;52.250;21.228;2023-05-24T09:01:39;100138.94;;;30.87;27.98
36254;BME280;22291;52.250;21.228;2023-05-24T09:04:09;100145.73;;;30.99;28.70
36254;BME280;22291;52.250;21.228;2023-05-24T09:06:36;100145.36;;;31.32;28.34
36254;BME280;22291;52.250;21.228;2023-05-24T09:09:06;100144.38;;;31.25;27.37
36254;BME280;22291;52.250;21.228;2023-05-24T09:11:36;100139.70;;;31.49;27.35
36254;BME280;22291;52.250;21.228;2023-05-24T09:14:05;100145.84;;;31.61;27.28
36254;BME280;22291;52.250;21.228;2023-05-24T09:16:34;100140.17;;;31.79;26.43
36254;BME280;22291;52.250;21.228;2023-05-24T09:19:01;100151.58;;;31.58;25.99
36254;BME280;22291;52.250;21.228;2023-05-24T09:21:29;100156.72;;;31.15;26.48
36254;BME280;22291;52.250;21.228;2023-05-24T09:23:57;100156.64;;;30.71;26.52
36254;BME280;22291;52.250;21.228;2023-05-24T09:26:28;100158.88;;;30.46;27.27
36254;BME280;22291;52.250;21.228;2023-05-24T09:28:57;100159.44;;;30.53;27.46
36254;BME280;22291;52.250;21.228;2023-05-24T09:31:37;100160.19;;;30.67;27.19
36254;BME280;22291;52.250;21.228;2023-05-24T09:34:09;100156.22;;;30.42;27.05
36254;BME280;22291;52.250;21.228;2023-05-24T09:36:40;100161.09;;;30.21;27.75
36254;BME280;22291;52.250;21.228;2023-05-24T09:39:08;100165.83;;;30.03;27.95
36254;BME280;22291;52.250;21.228;2023-05-24T09:41:37;100166.15;;;29.79;27.83
36254;BME280;22291;52.250;21.228;2023-05-24T09:44:04;100168.44;;;29.55;28.20
36254;BME280;22291;52.250;21.228;2023-05-24T09:46:37;100172.67;;;29.38;28.13
36254;BME280;22291;52.250;21.228;2023-05-24T09:49:03;100170.38;;;29.50;28.00
36254;BME280;22291;52.250;21.228;2023-05-24T09:51:35;100165.45;;;29.75;28.30
36254;BME280;22291;52.250;21.228;2023-05-24T09:54:04;100169.44;;;29.95;28.60
36254;BME280;22291;52.250;21.228;2023-05-24T09:56:32;100163.86;;;29.95;28.28
36254;BME280;22291;52.250;21.228;2023-05-24T09:59:08;100165.66;;;29.89;27.32
36254;BME280;22291;52.250;21.228;2023-05-24T10:01:34;100170.23;;;29.74;27.54
36254;BME280;22291;52.250;21.228;2023-05-24T10:04:01;100164.55;;;29.65;27.38
36254;BME280;22291;52.250;21.228;2023-05-24T10:06:30;100167.78;;;29.64;27.68
36254;BME280;22291;52.250;21.228;2023-05-24T10:09:00;100174.08;;;29.72;27.91
36254;BME280;22291;52.250;21.228;2023-05-24T10:11:32;100167.50;;;29.87;27.76
36254;BME280;22291;52.250;21.228;2023-05-24T10:14:03;100166.84;;;29.83;27.85
36254;BME280;22291;52.250;21.228;2023-05-24T10:16:32;100171.46;;;29.82;27.21
36254;BME280;22291;52.250;21.228;2023-05-24T10:18:58;100161.28;;;29.75;26.95
36254;BME280;22291;52.250;21.228;2023-05-24T10:21:27;100168.29;;;30.01;27.22
36254;BME280;22291;52.250;21.228;2023-05-24T10:23:56;100169.38;;;30.72;26.88
36254;BME280;22291;52.250;21.228;2023-05-24T10:26:27;100174.20;;;31.28;26.23
36254;BME280;22291;52.250;21.228;2023-05-24T10:29:00;100169.67;;;31.71;25.38
36254;BME280;22291;52.250;21.228;2023-05-24T10:31:31;100176.30;;;31.95;24.55
36254;BME280;22291;52.250;21.228;2023-05-24T10:34:01;100160.73;;;32.26;25.25
36254;BME280;22291;52.250;21.228;2023-05-24T10:36:29;100188.98;;;32.68;23.83
36254;BME280;22291;52.250;21.228;2023-05-24T10:38:57;100167.52;;;32.93;24.25
36254;BME280;22291;52.250;21.228;2023-05-24T10:41:26;100173.75;;;33.20;23.59
36254;BME280;22291;52.250;21.228;2023-05-24T10:43:53;100172.34;;;33.06;23.08
36254;BME280;22291;52.250;21.228;2023-05-24T10:46:19;100167.20;;;32.72;23.12
36254;BME280;22291;52.250;21.228;2023-05-24T10:48:58;100205.02;;;32.68;23.59
36254;BME280;22291;52.250;21.228;2023-05-24T10:51:38;100174.22;;;32.18;23.35
36254;BME280;22291;52.250;21.228;2023-05-24T10:54:18;100169.81;;;32.03;24.12
36254;BME280;22291;52.250;21.228;2023-05-24T10:56:48;100169.81;;;32.03;24.12
36254;BME280;22291;52.250;21.228;2023-05-24T10:59:35;100178.44;;;31.87;23.71
36254;BME280;22291;52.250;21.228;2023-05-24T11:02:10;100188.44;;;31.48;24.26
36254;BME280;22291;52.250;21.228;2023-05-24T11:04:37;100182.89;;;31.08;24.34
36254;BME280;22291;52.250;21.228;2023-05-24T11:07:08;100173.73;;;30.90;24.61
36254;BME280;22291;52.250;21.228;2023-05-24T11:09:37;100185.55;;;31.12;25.04
36254;BME280;22291;52.250;21.228;2023-05-24T11:12:15;100186.37;;;31.57;24.90
36254;BME280;22291;52.250;21.228;2023-05-24T11:14:50;100186.24;;;31.65;25.03
36254;BME280;22291;52.250;21.228;2023-05-24T11:17:21;100187.42;;;31.55;25.43
36254;BME280;22291;52.250;21.228;2023-05-24T11:19:53;100182.01;;;31.56;25.12
36254;BME280;22291;52.250;21.228;2023-05-24T11:22:23;100190.22;;;31.55;25.29
36254;BME280;22291;52.250;21.228;2023-05-24T11:24:51;100187.59;;;31.87;25.67
36254;BME280;22291;52.250;21.228;2023-05-24T11:27:19;100196.36;;;31.98;25.61
36254;BME280;22291;52.250;21.228;2023-05-24T11:29:47;100189.84;;;31.65;24.45
36254;BME280;22291;52.250;21.228;2023-05-24T11:32:19;100196.23;;;31.49;25.03
36254;BME280;22291;52.250;21.228;2023-05-24T11:34:47;100192.00;;;31.44;24.97
36254;BME280;22291;52.250;21.228;2023-05-24T11:37:15;100193.64;;;31.81;25.18
36254;BME280;22291;52.250;21.228;2023-05-24T11:39:42;100193.49;;;32.16;25.33
36254;BME280;22291;52.250;21.228;2023-05-24T11:42:08;100197.30;;;32.36;24.94
36254;BME280;22291;52.250;21.228;2023-05-24T11:44:35;100197.30;;;32.36;24.94
36254;BME280;22291;52.250;21.228;2023-05-24T11:47:04;100206.05;;;32.56;24.21
36254;BME280;22291;52.250;21.228;2023-05-24T11:49:33;100202.22;;;32.68;24.98
36254;BME280;22291;52.250;21.228;2023-05-24T11:52:00;100192.81;;;32.48;24.11
36254;BME280;22291;52.250;21.228;2023-05-24T11:54:28;100189.80;;;32.28;23.80
36254;BME280;22291;52.250;21.228;2023-05-24T11:56:55;100195.04;;;32.12;24.64
36254;BME280;22291;52.250;21.228;2023-05-24T11:59:24;100193.03;;;32.17;25.00
36254;BME280;22291;52.250;21.228;2023-05-24T12:02:03;100183.23;;;32.63;25.11
36254;BME280;22291;52.250;21.228;2023-05-24T12:04:29;100190.08;;;32.89;24.34
36254;BME280;22291;52.250;21.228;2023-05-24T12:06:57;100195.08;;;32.76;23.37
36254;BME280;22291;52.250;21.228;2023-05-24T12:09:24;100195.03;;;32.62;23.89
36254;BME280;22291;52.250;21.228;2023-05-24T12:11:52;100191.86;;;32.37;22.71
36254;BME280;22291;52.250;21.228;2023-05-24T12:14:26;100205.95;;;32.24;23.61
36254;BME280;22291;52.250;21.228;2023-05-24T12:16:54;100200.00;;;31.81;23.59
36254;BME280;22291;52.250;21.228;2023-05-24T12:19:23;100190.47;;;31.25;24.08
36254;BME280;22291;52.250;21.228;2023-05-24T12:21:54;100195.25;;;30.85;24.42
36254;BME280;22291;52.250;21.228;2023-05-24T12:24:23;100196.13;;;30.95;24.61
36254;BME280;22291;52.250;21.228;2023-05-24T12:26:51;100194.02;;;31.04;25.02
36254;BME280;22291;52.250;21.228;2023-05-24T12:29:19;100194.62;;;31.43;24.67
36254;BME280;22291;52.250;21.228;2023-05-24T12:31:47;100198.21;;;31.43;24.65
36254;BME280;22291;52.250;21.228;2023-05-24T12:34:16;100198.53;;;31.45;24.65
36254;BME280;22291;52.250;21.228;2023-05-24T12:36:44;100191.28;;;31.31;24.73
36254;BME280;22291;52.250;21.228;2023-05-24T12:39:20;100198.96;;;31.00;25.08
36254;BME280;22291;52.250;21.228;2023-05-24T12:41:57;100197.11;;;30.53;25.41
36254;BME280;22291;52.250;21.228;2023-05-24T12:44:35;100194.08;;;30.22;26.00
36254;BME280;22291;52.250;21.228;2023-05-24T12:47:02;100191.09;;;30.04;26.29
36254;BME280;22291;52.250;21.228;2023-05-24T12:49:30;100192.63;;;29.79;26.42
36254;BME280;22291;52.250;21.228;2023-05-24T12:51:57;100194.37;;;29.39;26.55
36254;BME280;22291;52.250;21.228;2023-05-24T12:54:25;100194.00;;;28.99;27.07
36254;BME280;22291;52.250;21.228;2023-05-24T12:56:53;100195.27;;;28.74;27.58
36254;BME280;22291;52.250;21.228;2023-05-24T12:59:21;100188.12;;;28.48;27.97
36254;BME280;22291;52.250;21.228;2023-05-24T13:01:47;100186.03;;;28.27;28.12
36254;BME280;22291;52.250;21.228;2023-05-24T13:04:18;100188.55;;;28.13;28.62
36254;BME280;22291;52.250;21.228;2023-05-24T13:06:46;100186.79;;;28.03;28.72
36254;BME280;22291;52.250;21.228;2023-05-24T13:09:13;100188.94;;;27.95;28.91
36254;BME280;22291;52.250;21.228;2023-05-24T13:11:42;100190.43;;;27.80;29.08
36254;BME280;22291;52.250;21.228;2023-05-24T13:14:10;100192.56;;;27.64;29.12
36254;BME280;22291;52.250;21.228;2023-05-24T13:16:38;100197.03;;;27.50;29.80
36254;BME280;22291;52.250;21.228;2023-05-24T13:19:04;100205.33;;;27.42;30.71
36254;BME280;22291;52.250;21.228;2023-05-24T13:21:30;100205.52;;;27.07;32.30
36254;BME280;22291;52.250;21.228;2023-05-24T13:23:57;100206.28;;;26.64;33.10
36254;BME280;22291;52.250;21.228;2023-05-24T13:26:24;100206.59;;;26.31;33.71
36254;BME280;22291;52.250;21.228;2023-05-24T13:28:50;100211.05;;;26.09;33.99
36254;BME280;22291;52.250;21.228;2023-05-24T13:31:17;100200.22;;;25.87;34.53
36254;BME280;22291;52.250;21.228;2023-05-24T13:33:43;100207.97;;;25.69;34.88
36254;BME280;22291;52.250;21.228;2023-05-24T13:36:09;100208.52;;;25.57;35.31
36254;BME280;22291;52.250;21.228;2023-05-24T13:38:35;100210.30;;;25.40;35.64
36254;BME280;22291;52.250;21.228;2023-05-24T13:41:02;100210.59;;;25.30;36.31
36254;BME280;22291;52.250;21.228;2023-05-24T13:43:29;100215.77;;;25.24;36.59
36254;BME280;22291;52.250;21.228;2023-05-24T13:45:56;100230.02;;;25.23;37.94
36254;BME280;22291;52.250;21.228;2023-05-24T13:48:23;100219.92;;;25.05;38.20
36254;BME280;22291;52.250;21.228;2023-05-24T13:50:49;100217.70;;;24.89;38.74
36254;BME280;22291;52.250;21.228;2023-05-24T13:53:16;100218.18;;;24.77;39.80
36254;BME280;22291;52.250;21.228;2023-05-24T13:55:42;100217.30;;;24.65;40.57
36254;BME280;22291;52.250;21.228;2023-05-24T13:58:09;100215.03;;;24.49;41.87
36254;BME280;22291;52.250;21.228;2023-05-24T14:00:36;100218.48;;;24.34;42.21
36254;BME280;22291;52.250;21.228;2023-05-24T14:03:02;100217.13;;;24.30;42.52
36254;BME280;22291;52.250;21.228;2023-05-24T14:05:31;100217.27;;;24.38;43.65
36254;BME280;22291;52.250;21.228;2023-05-24T14:07:57;100216.84;;;24.43;43.82
36254;BME280;22291;52.250;21.228;2023-05-24T14:10:25;100220.56;;;24.49;44.54
36254;BME280;22291;52.250;21.228;2023-05-24T14:12:52;100228.27;;;24.46;44.97
36254;BME280;22291;52.250;21.228;2023-05-24T14:15:18;100236.49;;;24.27;44.41
36254;BME280;22291;52.250;21.228;2023-05-24T14:17:44;100229.50;;;24.04;44.67
36254;BME280;22291;52.250;21.228;2023-05-24T14:20:11;100237.64;;;23.92;45.14
36254;BME280;22291;52.250;21.228;2023-05-24T14:22:39;100228.80;;;23.78;45.36
36254;BME280;22291;52.250;21.228;2023-05-24T14:25:07;100223.52;;;23.65;45.18
36254;BME280;22291;52.250;21.228;2023-05-24T14:27:34;100229.28;;;23.59;45.23
36254;BME280;22291;52.250;21.228;2023-05-24T14:30:01;100231.26;;;23.58;45.76
36254;BME280;22291;52.250;21.228;2023-05-24T14:32:28;100219.63;;;23.55;45.28
36254;BME280;22291;52.250;21.228;2023-05-24T14:34:54;100219.82;;;23.53;45.13
36254;BME280;22291;52.250;21.228;2023-05-24T14:37:21;100223.39;;;23.53;45.13
36254;BME280;22291;52.250;21.228;2023-05-24T14:39:48;100231.86;;;23.50;45.03
36254;BME280;22291;52.250;21.228;2023-05-24T14:42:14;100231.88;;;23.47;44.73
36254;BME280;22291;52.250;21.228;2023-05-24T14:44:40;100235.80;;;23.46;44.11
36254;BME280;22291;52.250;21.228;2023-05-24T14:47:07;100234.05;;;23.44;42.92
36254;BME280;22291;52.250;21.228;2023-05-24T14:49:33;100234.44;;;23.42;42.69
36254;BME280;22291;52.250;21.228;2023-05-24T14:51:59;100233.44;;;23.44;42.68
36254;BME280;22291;52.250;21.228;2023-05-24T14:54:28;100229.31;;;23.48;41.80
36254;BME280;22291;52.250;21.228;2023-05-24T14:56:54;100229.70;;;23.50;41.91
36254;BME280;22291;52.250;21.228;2023-05-24T14:59:20;100231.46;;;23.52;41.23
36254;BME280;22291;52.250;21.228;2023-05-24T15:01:47;100231.67;;;23.53;40.80
36254;BME280;22291;52.250;21.228;2023-05-24T15:04:13;100229.69;;;23.54;40.03
36254;BME280;22291;52.250;21.228;2023-05-24T15:06:39;100232.45;;;23.54;40.16
36254;BME280;22291;52.250;21.228;2023-05-24T15:09:05;100230.45;;;23.58;39.96
36254;BME280;22291;52.250;21.228;2023-05-24T15:11:32;100227.10;;;23.62;39.70
36254;BME280;22291;52.250;21.228;2023-05-24T15:13:58;100225.50;;;23.64;39.76
36254;BME280;22291;52.250;21.228;2023-05-24T15:16:25;100230.21;;;23.71;39.63
36254;BME280;22291;52.250;21.228;2023-05-24T15:18:52;100225.86;;;23.77;40.12
36254;BME280;22291;52.250;21.228;2023-05-24T15:21:19;100225.44;;;23.90;40.10
36254;BME280;22291;52.250;21.228;2023-05-24T15:23:46;100230.13;;;24.00;40.53
36254;BME280;22291;52.250;21.228;2023-05-24T15:26:13;100232.41;;;24.12;39.63
36254;BME280;22291;52.250;21.228;2023-05-24T15:28:40;100235.71;;;24.22;39.91
36254;BME280;22291;52.250;21.228;2023-05-24T15:31:09;100237.42;;;24.35;39.81
36254;BME280;22291;52.250;21.228;2023-05-24T15:33:36;100238.33;;;24.48;39.87
36254;BME280;22291;52.250;21.228;2023-05-24T15:36:03;100239.66;;;24.62;40.59
36254;BME280;22291;52.250;21.228;2023-05-24T15:38:31;100240.87;;;24.80;38.83
36254;BME280;22291;52.250;21.228;2023-05-24T15:40:59;100240.87;;;24.80;38.83
36254;BME280;22291;52.250;21.228;2023-05-24T15:43:26;100256.97;;;24.92;39.10
36254;BME280;22291;52.250;21.228;2023-05-24T15:45:55;100262.50;;;24.92;38.79
36254;BME280;22291;52.250;21.228;2023-05-24T15:48:21;100265.50;;;24.90;39.22
36254;BME280;22291;52.250;21.228;2023-05-24T15:50:48;100274.81;;;24.84;39.60
36254;BME280;22291;52.250;21.228;2023-05-24T15:53:16;100271.91;;;24.79;39.53
36254;BME280;22291;52.250;21.228;2023-05-24T15:55:42;100276.09;;;24.76;39.84
36254;BME280;22291;52.250;21.228;2023-05-24T15:58:13;100273.09;;;24.78;40.04
36254;BME280;22291;52.250;21.228;2023-05-24T16:00:42;100278.22;;;24.80;40.21
36254;BME280;22291;52.250;21.228;2023-05-24T16:03:08;100279.56;;;24.84;40.32
36254;BME280;22291;52.250;21.228;2023-05-24T16:05:37;100281.93;;;24.85;40.27
36254;BME280;22291;52.250;21.228;2023-05-24T16:08:04;100289.86;;;24.83;40.31
36254;BME280;22291;52.250;21.228;2023-05-24T16:10:30;100288.91;;;24.78;40.28
36254;BME280;22291;52.250;21.228;2023-05-24T16:12:56;100297.81;;;24.77;40.52
36254;BME280;22291;52.250;21.228;2023-05-24T16:15:24;100300.59;;;24.70;40.68
36254;BME280;22291;52.250;21.228;2023-05-24T16:17:51;100296.91;;;24.61;40.87
36254;BME280;22291;52.250;21.228;2023-05-24T16:20:17;100298.11;;;24.53;41.28
36254;BME280;22291;52.250;21.228;2023-05-24T16:22:47;100305.67;;;24.46;41.40
36254;BME280;22291;52.250;21.228;2023-05-24T16:25:15;100310.06;;;24.36;42.03
36254;BME280;22291;52.250;21.228;2023-05-24T16:27:41;100306.58;;;24.21;42.40
36254;BME280;22291;52.250;21.228;2023-05-24T16:30:09;100299.94;;;24.04;43.05
36254;BME280;22291;52.250;21.228;2023-05-24T16:32:36;100301.77;;;23.92;43.64
36254;BME280;22291;52.250;21.228;2023-05-24T16:35:05;100309.70;;;23.82;44.08
36254;BME280;22291;52.250;21.228;2023-05-24T16:37:32;100307.74;;;23.68;45.81
36254;BME280;22291;52.250;21.228;2023-05-24T16:39:59;100303.02;;;23.55;46.06
36254;BME280;22291;52.250;21.228;2023-05-24T16:42:26;100312.30;;;23.49;47.36
36254;BME280;22291;52.250;21.228;2023-05-24T16:44:54;100311.72;;;23.39;48.34
36254;BME280;22291;52.250;21.228;2023-05-24T16:47:21;100323.56;;;23.28;48.93
36254;BME280;22291;52.250;21.228;2023-05-24T16:49:49;100325.52;;;23.17;49.77
36254;BME280;22291;52.250;21.228;2023-05-24T16:52:16;100327.66;;;23.00;50.53
36254;BME280;22291;52.250;21.228;2023-05-24T16:54:43;100326.88;;;22.88;51.49
36254;BME280;22291;52.250;21.228;2023-05-24T16:57:09;100330.59;;;22.75;51.15
36254;BME280;22291;52.250;21.228;2023-05-24T16:59:36;100333.91;;;22.64;51.44
36254;BME280;22291;52.250;21.228;2023-05-24T17:02:04;100331.52;;;22.55;51.54
36254;BME280;22291;52.250;21.228;2023-05-24T17:04:31;100337.62;;;22.48;52.39
36254;BME280;22291;52.250;21.228;2023-05-24T17:06:57;100342.69;;;22.35;53.28
36254;BME280;22291;52.250;21.228;2023-05-24T17:09:24;100340.47;;;22.24;52.27
36254;BME280;22291;52.250;21.228;2023-05-24T17:11:51;100344.55;;;22.16;52.71
36254;BME280;22291;52.250;21.228;2023-05-24T17:14:17;100337.62;;;22.06;52.97
36254;BME280;22291;52.250;21.228;2023-05-24T17:16:43;100336.78;;;21.98;53.21
36254;BME280;22291;52.250;21.228;2023-05-24T17:19:10;100342.06;;;21.90;53.63
36254;BME280;22291;52.250;21.228;2023-05-24T17:21:40;100349.31;;;21.85;53.74
36254;BME280;22291;52.250;21.228;2023-05-24T17:24:07;100346.52;;;21.81;53.89
36254;BME280;22291;52.250;21.228;2023-05-24T17:26:34;100351.24;;;21.80;53.63
36254;BME280;22291;52.250;21.228;2023-05-24T17:29:00;100358.72;;;21.80;53.94
36254;BME280;22291;52.250;21.228;2023-05-24T17:31:27;100359.06;;;21.71;53.89
36254;BME280;22291;52.250;21.228;2023-05-24T17:33:53;100362.34;;;21.63;54.27
36254;BME280;22291;52.250;21.228;2023-05-24T17:36:21;100368.77;;;21.54;54.45
36254;BME280;22291;52.250;21.228;2023-05-24T17:38:47;100375.95;;;21.45;54.54
36254;BME280;22291;52.250;21.228;2023-05-24T17:41:14;100378.84;;;21.39;54.54
36254;BME280;22291;52.250;21.228;2023-05-24T17:43:40;100374.91;;;21.37;54.67
36254;BME280;22291;52.250;21.228;2023-05-24T17:46:06;100376.44;;;21.34;55.07
36254;BME280;22291;52.250;21.228;2023-05-24T17:48:37;100371.66;;;21.27;55.25
36254;BME280;22291;52.250;21.228;2023-05-24T17:51:07;100374.95;;;21.20;55.01
36254;BME280;22291;52.250;21.228;2023-05-24T17:53:37;100379.61;;;21.16;55.23
36254;BME280;22291;52.250;21.228;2023-05-24T17:56:06;100385.49;;;21.14;55.29
36254;BME280;22291;52.250;21.228;2023-05-24T17:58:33;100386.46;;;21.12;55.28
36254;BME280;22291;52.250;21.228;2023-05-24T18:01:05;100385.27;;;21.10;55.35
36254;BME280;22291;52.250;21.228;2023-05-24T18:03:33;100388.96;;;21.07;55.52
36254;BME280;22291;52.250;21.228;2023-05-24T18:06:05;100387.52;;;21.00;55.77
36254;BME280;22291;52.250;21.228;2023-05-24T18:08:32;100392.36;;;20.94;55.72
36254;BME280;22291;52.250;21.228;2023-05-24T18:11:03;100388.95;;;20.87;56.20
36254;BME280;22291;52.250;21.228;2023-05-24T18:13:36;100395.16;;;20.80;56.21
36254;BME280;22291;52.250;21.228;2023-05-24T18:16:01;100403.97;;;20.76;56.35
36254;BME280;22291;52.250;21.228;2023-05-24T18:18:28;100403.30;;;20.69;56.76
36254;BME280;22291;52.250;21.228;2023-05-24T18:20:54;100410.88;;;20.63;56.79
36254;BME280;22291;52.250;21.228;2023-05-24T18:23:22;100416.04;;;20.55;57.06
36254;BME280;22291;52.250;21.228;2023-05-24T18:25:49;100413.63;;;20.49;57.06
36254;BME280;22291;52.250;21.228;2023-05-24T18:28:17;100417.11;;;20.46;57.77
36254;BME280;22291;52.250;21.228;2023-05-24T18:30:43;100424.31;;;20.41;57.62
36254;BME280;22291;52.250;21.228;2023-05-24T18:33:10;100434.47;;;20.37;57.43
36254;BME280;22291;52.250;21.228;2023-05-24T18:35:37;100434.20;;;20.32;57.89
36254;BME280;22291;52.250;21.228;2023-05-24T18:38:04;100448.48;;;20.28;57.84
36254;BME280;22291;52.250;21.228;2023-05-24T18:40:32;100449.81;;;20.25;57.79
36254;BME280;22291;52.250;21.228;2023-05-24T18:42:58;100446.64;;;20.23;57.95
36254;BME280;22291;52.250;21.228;2023-05-24T18:45:25;100451.50;;;20.20;58.02
36254;BME280;22291;52.250;21.228;2023-05-24T18:47:52;100448.90;;;20.17;58.11
36254;BME280;22291;52.250;21.228;2023-05-24T18:50:19;100454.52;;;20.11;58.32
36254;BME280;22291;52.250;21.228;2023-05-24T18:52:48;100457.13;;;20.04;58.39
36254;BME280;22291;52.250;21.228;2023-05-24T18:55:17;100461.01;;;19.99;58.38
36254;BME280;22291;52.250;21.228;2023-05-24T18:57:43;100468.23;;;19.98;58.79
36254;BME280;22291;52.250;21.228;2023-05-24T19:00:12;100462.78;;;19.88;58.64
36254;BME280;22291;52.250;21.228;2023-05-24T19:02:39;100471.69;;;19.81;58.96
36254;BME280;22291;52.250;21.228;2023-05-24T19:05:07;100477.27;;;19.75;59.12
36254;BME280;22291;52.250;21.228;2023-05-24T19:07:35;100469.90;;;19.69;59.27
36254;BME280;22291;52.250;21.228;2023-05-24T19:10:02;100469.62;;;19.65;59.25
36254;BME280;22291;52.250;21.228;2023-05-24T19:12:30;100471.88;;;19.59;59.52
36254;BME280;22291;52.250;21.228;2023-05-24T19:14:58;100470.81;;;19.54;59.67
36254;BME280;22291;52.250;21.228;2023-05-24T19:17:27;100469.52;;;19.48;59.55
36254;BME280;22291;52.250;21.228;2023-05-24T19:19:53;100484.55;;;19.44;59.81
36254;BME280;22291;52.250;21.228;2023-05-24T19:22:20;100484.06;;;19.38;60.11
36254;BME280;22291;52.250;21.228;2023-05-24T19:24:47;100480.41;;;19.31;60.25
36254;BME280;22291;52.250;21.228;2023-05-24T19:27:13;100480.68;;;19.26;60.68
36254;BME280;22291;52.250;21.228;2023-05-24T19:29:40;100484.11;;;19.19;60.54
36254;BME280;22291;52.250;21.228;2023-05-24T19:32:07;100482.88;;;19.16;60.60
36254;BME280;22291;52.250;21.228;2023-05-24T19:34:35;100484.90;;;19.10;60.67
36254;BME280;22291;52.250;21.228;2023-05-24T19:37:04;100483.69;;;19.07;61.15
36254;BME280;22291;52.250;21.228;2023-05-24T19:39:30;100493.41;;;19.04;61.04
36254;BME280;22291;52.250;21.228;2023-05-24T19:41:56;100492.56;;;19.00;61.38
36254;BME280;22291;52.250;21.228;2023-05-24T19:44:23;100488.73;;;18.95;61.70
36254;BME280;22291;52.250;21.228;2023-05-24T19:46:51;100495.66;;;18.89;61.82
36254;BME280;22291;52.250;21.228;2023-05-24T19:49:21;100499.59;;;18.82;62.07